South Bend Regional Airport

Airport
ICAO code: 
KSBN
Summary
ICAO Region: 
NAM
Territory: 
Location: 
South Bend, Indiana,
Coordinates: 
Aerial View: 
41° 42' 26.309" N, 86° 19' 8.737" W
Airport LOS: 
Parallel Runway Operation
Metar
Observation
KSBN 070954Z AUTO 31007KT 10SM OVC030 M06/M12 A3024 RMK AO2 SNE42 SLP253 P0000 T10611117
Station
South Bend, South Bend Regional Airport
Date/Time
2021-12-07 09:54:00
Wind direction
310°
Wind speed
07 kts
Lowest cloud amount
overcast
Temperature
-6.1°C
Dew point
-11.7°C
Humidity
64%
Weather condition
n/a

Description

South Bend Regional Airport is a public airport located 5 km northwest of the central business district of South Bend, a city in St. Joseph County, Indiana.

Climatology

Humid continental climate (Köppen climate classification Dfa) - characterized by four seasons: cold, windy, snowy winters, mild springs, hot, humid summers, and crisp and relatively short autumns. Precipitation reaches its lowest in January and February and peaks in summer and latter half of spring.

Runways

Designator Length Width Surface Rops
09L/27R 1311 23 ASP Yes/Yes
18/36 1829 46 ASP Yes/Yes
09R/27L 2564 46 ASP Yes/Yes
Airport map: 
Aerial View: 

SKYbrary Partners:

Safety knowledge contributed by: